Time;durP1;ratioP1;P1;durP2;ratioP2;P2;SDS_P1;SDS_P2;PMS_P1;PMS_P2;Temp;Humidity;BMP_temperature;BMP_pressure;BME280_temperature;BME280_humidity;BME280_pressure;Samples;Min_cycle;Max_cycle;Signal;HPM_P1;HPM_P2
2023/04/20 00:01:39;;;;;;;1999.90;999.90;;;12.30;99.90;;;;;;5075406;28;20082;-69
2023/04/20 00:04:05;;;;;;;1999.90;999.90;;;12.20;99.90;;;;;;5076252;28;20025;-75
2023/04/20 00:06:32;;;;;;;1999.90;999.90;;;12.10;99.90;;;;;;5075921;28;20036;-75
2023/04/20 00:08:58;;;;;;;1999.90;999.90;;;12.10;99.90;;;;;;5076062;28;20024;-76
2023/04/20 00:11:25;;;;;;;1999.90;999.90;;;12.10;99.90;;;;;;5076368;28;20128;-76
2023/04/20 00:13:51;;;;;;;1999.90;999.90;;;12.00;99.90;;;;;;5075896;28;20508;-69
2023/04/20 00:16:17;;;;;;;1999.90;999.90;;;12.00;99.90;;;;;;5076129;28;20024;-76
2023/04/20 00:18:45;;;;;;;1999.90;999.90;;;12.00;99.90;;;;;;5075785;28;20043;-76
2023/04/20 00:21:12;;;;;;;1999.90;999.90;;;12.00;99.90;;;;;;5075994;28;20016;-69
2023/04/20 00:23:37;;;;;;;1999.90;999.90;;;12.00;99.90;;;;;;5075699;28;20020;-76
2023/04/20 00:26:03;;;;;;;1999.90;999.90;;;11.90;99.90;;;;;;5076005;28;20028;-69
2023/04/20 00:28:30;;;;;;;1999.90;999.90;;;11.90;99.90;;;;;;5083593;28;20028;-69
2023/04/20 00:30:55;;;;;;;1999.90;999.90;;;11.90;99.90;;;;;;5095973;28;20055;-76
2023/04/20 00:33:21;;;;;;;1999.90;999.90;;;11.90;99.90;;;;;;5094751;28;20476;-76
2023/04/20 00:35:46;;;;;;;1999.90;999.90;;;11.90;99.90;;;;;;5095738;28;20092;-76
2023/04/20 00:38:12;;;;;;;1999.90;999.90;;;11.80;99.90;;;;;;5095839;28;20024;-76
2023/04/20 00:40:38;;;;;;;1999.90;999.90;;;11.80;99.90;;;;;;5095767;28;20479;-68
2023/04/20 00:43:13;;;;;;;1999.90;999.90;;;11.80;99.90;;;;;;5095841;28;20055;-76
2023/04/20 00:45:39;;;;;;;1999.90;999.90;;;11.80;99.90;;;;;;5095710;28;20020;-76
2023/04/20 00:48:05;;;;;;;1999.90;999.90;;;11.70;99.90;;;;;;5080418;28;20027;-68
2023/04/20 00:50:32;;;;;;;1999.90;999.90;;;11.70;99.90;;;;;;5074960;28;20127;-76
2023/04/20 00:52:57;;;;;;;1999.90;999.90;;;11.60;99.90;;;;;;5074855;28;20012;-69
2023/04/20 00:55:23;;;;;;;1999.90;999.90;;;11.60;99.90;;;;;;5075249;28;20055;-69
2023/04/20 00:57:50;;;;;;;1999.90;999.90;;;11.60;99.90;;;;;;5075499;28;20021;-76
2023/04/20 01:00:15;;;;;;;1999.90;999.90;;;11.60;99.90;;;;;;5075013;28;20021;-76
2023/04/20 01:02:41;;;;;;;1999.90;999.90;;;11.60;99.90;;;;;;5074195;28;20034;-76
2023/04/20 01:05:07;;;;;;;1999.90;999.90;;;11.60;99.90;;;;;;5075063;28;20036;-68
2023/04/20 01:07:33;;;;;;;1999.90;999.90;;;11.50;99.90;;;;;;5075152;28;20016;-69
2023/04/20 01:09:58;;;;;;;1999.90;999.90;;;11.50;99.90;;;;;;5074867;28;20032;-76
2023/04/20 01:12:24;;;;;;;1999.90;999.90;;;11.50;99.90;;;;;;5074692;28;20028;-76
2023/04/20 01:14:50;;;;;;;1999.90;999.90;;;11.50;99.90;;;;;;5074762;28;20369;-76
2023/04/20 01:17:16;;;;;;;1999.90;999.90;;;11.50;99.90;;;;;;5074025;28;20021;-76
2023/04/20 01:19:43;;;;;;;1999.90;999.90;;;11.40;99.90;;;;;;5074912;28;20025;-68
2023/04/20 01:22:17;;;;;;;1999.90;999.90;;;11.40;99.90;;;;;;5074842;28;20111;-69
2023/04/20 01:24:43;;;;;;;1999.90;999.90;;;11.40;99.90;;;;;;5074567;28;20035;-76
2023/04/20 01:27:08;;;;;;;1999.90;999.90;;;11.40;99.90;;;;;;5074839;28;20036;-76
2023/04/20 01:29:34;;;;;;;1999.90;999.90;;;11.40;99.90;;;;;;5091689;28;20028;-76
2023/04/20 01:32:00;;;;;;;1999.90;999.90;;;11.40;99.90;;;;;;5094746;28;20028;-76
2023/04/20 01:34:26;;;;;;;1999.90;999.90;;;11.40;99.90;;;;;;5094848;28;20028;-76
2023/04/20 01:36:51;;;;;;;1999.90;999.90;;;11.30;99.90;;;;;;5094555;28;20455;-76
2023/04/20 01:39:17;;;;;;;1999.90;999.90;;;11.30;99.90;;;;;;5094587;28;20020;-76
2023/04/20 01:41:43;;;;;;;1999.90;999.90;;;11.30;99.90;;;;;;5094895;28;20078;-76
2023/04/20 01:44:09;;;;;;;1999.90;999.90;;;11.30;99.90;;;;;;5094417;28;20490;-68
2023/04/20 01:46:39;;;;;;;1999.90;999.90;;;11.20;99.90;;;;;;5091970;28;20062;-69
2023/04/20 01:49:08;;;;;;;1999.90;999.90;;;11.30;99.90;;;;;;5074291;28;20430;-76
2023/04/20 01:51:34;;;;;;;1999.90;999.90;;;11.20;99.90;;;;;;5074019;28;20507;-76
2023/04/20 01:54:00;;;;;;;1999.90;999.90;;;11.20;99.90;;;;;;5073888;28;20070;-76
2023/04/20 01:56:26;;;;;;;1999.90;999.90;;;11.10;99.90;;;;;;5073951;28;20021;-76
2023/04/20 01:58:52;;;;;;;1999.90;999.90;;;11.10;99.90;;;;;;5074163;28;20036;-68
2023/04/20 02:01:17;;;;;;;1999.90;999.90;;;11.20;99.90;;;;;;5073103;28;20451;-76
2023/04/20 02:03:43;;;;;;;1999.90;999.90;;;11.20;99.90;;;;;;5073491;28;20040;-75
2023/04/20 02:06:09;;;;;;;1999.90;999.90;;;11.20;99.90;;;;;;5073681;28;20033;-75
2023/04/20 02:08:34;;;;;;;1999.90;999.90;;;11.20;99.90;;;;;;5074002;28;20024;-76
2023/04/20 02:11:00;;;;;;;1999.90;999.90;;;11.10;99.90;;;;;;5073571;28;20123;-69
2023/04/20 02:13:26;;;;;;;1999.90;999.90;;;11.10;99.90;;;;;;5055639;28;20028;-69
2023/04/20 02:15:52;;;;;;;1999.90;999.90;;;11.10;99.90;;;;;;5073756;28;20016;-76
2023/04/20 02:18:18;;;;;;;1999.90;999.90;;;11.00;99.90;;;;;;5073765;28;20502;-76
2023/04/20 02:20:44;;;;;;;1999.90;999.90;;;11.00;99.90;;;;;;5073560;28;20025;-76
2023/04/20 02:23:10;;;;;;;1999.90;999.90;;;11.00;99.90;;;;;;5055535;28;20036;-69
2023/04/20 02:25:36;;;;;;;1999.90;999.90;;;10.90;99.90;;;;;;5073363;28;20051;-69
2023/04/20 02:28:02;;;;;;;1999.90;999.90;;;10.90;99.90;;;;;;5077804;28;20062;-75
2023/04/20 02:30:28;;;;;;;1999.90;999.90;;;10.90;99.90;;;;;;5093701;28;20028;-76
2023/04/20 02:32:53;;;;;;;1999.90;999.90;;;10.90;99.90;;;;;;5093504;28;20036;-68
2023/04/20 02:35:19;;;;;;;1999.90;999.90;;;10.80;99.90;;;;;;5093529;28;20031;-69
2023/04/20 02:37:45;;;;;;;1999.90;999.90;;;10.80;99.90;;;;;;5093385;28;20409;-69
2023/04/20 02:40:11;;;;;;;1999.90;999.90;;;10.70;99.90;;;;;;5093402;28;20035;-76
2023/04/20 02:42:37;;;;;;;1999.90;999.90;;;10.60;99.90;;;;;;5093693;28;20027;-76
2023/04/20 02:45:03;;;;;;;1999.90;999.90;;;10.60;99.90;;;;;;5093175;28;20024;-76
2023/04/20 02:47:29;;;;;;;1999.90;999.90;;;10.50;99.90;;;;;;5083282;28;20021;-76
2023/04/20 02:49:55;;;;;;;1999.90;999.90;;;10.50;99.90;;;;;;5073225;28;20106;-68
2023/04/20 02:52:21;;;;;;;1999.90;999.90;;;10.40;99.90;;;;;;5072800;28;20028;-69
2023/04/20 02:54:46;;;;;;;1999.90;999.90;;;10.40;99.90;;;;;;5072463;28;20464;-76
2023/04/20 02:57:12;;;;;;;1999.90;999.90;;;10.40;99.90;;;;;;5073153;28;20021;-76
2023/04/20 02:59:38;;;;;;;1999.90;999.90;;;10.30;99.90;;;;;;5073148;28;20020;-76
2023/04/20 03:02:04;;;;;;;1999.90;999.90;;;10.30;99.90;;;;;;5071863;28;20024;-69
2023/04/20 03:04:30;;;;;;;1999.90;999.90;;;10.20;99.90;;;;;;5073010;28;20016;-76
2023/04/20 03:06:56;;;;;;;1999.90;999.90;;;10.20;99.90;;;;;;5072958;28;20013;-76
2023/04/20 03:09:22;;;;;;;1999.90;999.90;;;10.20;99.90;;;;;;5053102;28;20028;-76
2023/04/20 03:11:48;;;;;;;1999.90;999.90;;;10.20;99.90;;;;;;5071166;28;20047;-76
2023/04/20 03:14:14;;;;;;;1999.90;999.90;;;10.20;99.90;;;;;;5073098;28;20032;-76
2023/04/20 03:16:40;;;;;;;1999.90;999.90;;;10.20;99.90;;;;;;5072702;28;20104;-69
2023/04/20 03:19:06;;;;;;;1999.90;999.90;;;10.20;99.90;;;;;;5072926;28;20048;-76
2023/04/20 03:21:32;;;;;;;1999.90;999.90;;;10.20;99.90;;;;;;5073006;28;20469;-76
2023/04/20 03:23:58;;;;;;;1999.90;999.90;;;10.10;99.90;;;;;;5072677;28;20021;-76
2023/04/20 03:26:24;;;;;;;1999.90;999.90;;;10.10;99.90;;;;;;5072664;28;20039;-76
2023/04/20 03:28:50;;;;;;;1999.90;999.90;;;10.10;99.90;;;;;;5072477;28;20029;-69
2023/04/20 03:31:16;;;;;;;1999.90;999.90;;;10.00;99.90;;;;;;5072953;28;20033;-69
2023/04/20 03:33:41;;;;;;;1999.90;999.90;;;9.90;99.90;;;;;;5054821;28;20048;-76
2023/04/20 03:36:08;;;;;;;1999.90;999.90;;;9.90;99.90;;;;;;5072705;28;20021;-69
2023/04/20 03:38:34;;;;;;;1999.90;999.90;;;9.90;99.90;;;;;;5072626;28;20028;-76
2023/04/20 03:40:59;;;;;;;1999.90;999.90;;;9.80;99.90;;;;;;5072428;28;20395;-69
2023/04/20 03:43:25;;;;;;;1999.90;999.90;;;9.80;99.90;;;;;;5072886;28;20094;-69
2023/04/20 03:45:51;;;;;;;1999.90;999.90;;;9.80;99.90;;;;;;5072919;28;20032;-76
2023/04/20 03:48:16;;;;;;;1999.90;999.90;;;9.70;99.90;;;;;;5072293;28;20025;-76
2023/04/20 03:50:42;;;;;;;1999.90;999.90;;;9.70;99.90;;;;;;5072369;28;20053;-76
2023/04/20 03:53:07;;;;;;;1999.90;999.90;;;9.70;99.90;;;;;;5072239;28;20028;-74
2023/04/20 03:55:33;;;;;;;1999.90;999.90;;;9.60;99.90;;;;;;5072610;28;20017;-69
2023/04/20 03:57:58;;;;;;;1999.90;999.90;;;9.60;99.90;;;;;;5072603;28;20072;-76
2023/04/20 04:00:24;;;;;;;1999.90;999.90;;;9.60;99.90;;;;;;5072483;28;20539;-69
2023/04/20 04:02:50;;;;;;;1999.90;999.90;;;9.60;99.90;;;;;;5071242;28;20032;-76
2023/04/20 04:05:15;;;;;;;1999.90;999.90;;;9.60;99.90;;;;;;5072693;28;20502;-76
2023/04/20 04:07:41;;;;;;;1999.90;999.90;;;9.60;99.90;;;;;;5075838;28;20023;-69
2023/04/20 04:10:08;;;;;;;1999.90;999.90;;;9.60;99.90;;;;;;5076009;28;20479;-76
2023/04/20 04:12:33;;;;;;;1999.90;999.90;;;9.60;99.90;;;;;;5076039;28;20108;-69
2023/04/20 04:14:59;;;;;;;1999.90;999.90;;;9.60;99.90;;;;;;5075847;28;20112;-76
2023/04/20 04:17:25;;;;;;;1999.90;999.90;;;9.60;99.90;;;;;;5075148;28;20017;-76
2023/04/20 04:19:50;;;;;;;1999.90;999.90;;;9.60;99.90;;;;;;5076205;28;20020;-68
2023/04/20 04:22:16;;;;;;;1999.90;999.90;;;9.60;99.90;;;;;;5075961;28;20432;-68
2023/04/20 04:24:41;;;;;;;1999.90;999.90;;;9.70;99.90;;;;;;5075795;28;20583;-76
2023/04/20 04:27:07;;;;;;;1999.90;999.90;;;9.60;99.90;;;;;;5075950;28;20020;-76
2023/04/20 04:29:37;;;;;;;1999.90;999.90;;;9.60;99.90;;;;;;5092251;28;20032;-76
2023/04/20 04:32:04;;;;;;;1999.90;999.90;;;9.60;99.90;;;;;;5085425;28;20792;-75
2023/04/20 04:34:30;;;;;;;1999.90;999.90;;;9.60;99.90;;;;;;5075249;28;20024;-69
2023/04/20 04:36:56;;;;;;;1999.90;999.90;;;9.60;99.90;;;;;;5075284;28;20016;-76
2023/04/20 04:39:22;;;;;;;1999.90;999.90;;;9.50;99.90;;;;;;5075184;28;20376;-76
2023/04/20 04:41:48;;;;;;;1999.90;999.90;;;9.50;99.90;;;;;;5075349;28;20020;-77
2023/04/20 04:44:14;;;;;;;1999.90;999.90;;;9.50;99.90;;;;;;5075298;28;20040;-76
2023/04/20 04:46:40;;;;;;;1999.90;999.90;;;9.40;99.90;;;;;;5075270;28;20028;-76
2023/04/20 04:49:06;;;;;;;1999.90;999.90;;;9.40;99.90;;;;;;5075333;28;20384;-69
2023/04/20 04:51:32;;;;;;;1999.90;999.90;;;9.50;99.90;;;;;;5075236;28;20056;-69
2023/04/20 04:53:58;;;;;;;1999.90;999.90;;;9.50;99.90;;;;;;5074738;28;20028;-69
2023/04/20 04:56:24;;;;;;;1999.90;999.90;;;9.50;99.90;;;;;;5075889;28;20021;-76
2023/04/20 04:58:49;;;;;;;1999.90;999.90;;;9.50;99.90;;;;;;5095452;28;20044;-69
2023/04/20 05:01:15;;;;;;;1999.90;999.90;;;9.50;99.90;;;;;;5095546;28;20077;-69
2023/04/20 05:03:40;;;;;;;1999.90;999.90;;;9.40;99.90;;;;;;5093968;28;20498;-76
2023/04/20 05:06:06;;;;;;;1999.90;999.90;;;9.40;99.90;;;;;;5095052;28;20036;-69
2023/04/20 05:08:33;;;;;;;1999.90;999.90;;;9.40;99.90;;;;;;5081490;28;20032;-69
2023/04/20 05:10:58;;;;;;;1999.90;999.90;;;9.40;99.90;;;;;;5075332;28;20028;-76
2023/04/20 05:13:24;;;;;;;1999.90;999.90;;;9.40;99.90;;;;;;5074734;28;20056;-76
2023/04/20 05:15:49;;;;;;;1999.90;999.90;;;9.40;99.90;;;;;;5075086;28;20359;-69
2023/04/20 05:18:15;;;;;;;1999.90;999.90;;;9.40;99.90;;;;;;5074151;28;20467;-76
2023/04/20 05:20:41;;;;;;;1999.90;999.90;;;9.40;99.90;;;;;;5073937;28;20028;-71
2023/04/20 05:23:07;;;;;;;1999.90;999.90;;;9.40;99.90;;;;;;5069687;28;20027;-76
2023/04/20 05:25:33;;;;;;;1999.90;999.90;;;9.40;99.90;;;;;;5094831;28;20066;-69
2023/04/20 05:27:59;;;;;;;1999.90;999.90;;;9.40;99.90;;;;;;5090918;28;20468;-69
2023/04/20 05:30:24;;;;;;;1999.90;999.90;;;9.40;99.90;;;;;;5074204;28;20035;-76
2023/04/20 05:32:50;;;;;;;1999.90;999.90;;;9.40;99.90;;;;;;5073901;28;20036;-69
2023/04/20 05:35:16;;;;;;;1999.90;999.90;;;9.50;99.90;;;;;;5074328;28;20032;-68
2023/04/20 05:37:41;;;;;;;1999.90;999.90;;;9.50;99.90;;;;;;5074508;28;20055;-70
2023/04/20 05:40:08;;;;;;;1999.90;999.90;;;9.50;99.90;;;;;;5074085;28;20027;-68
2023/04/20 05:42:34;;;;;;;1999.90;999.90;;;9.60;99.90;;;;;;5074600;28;20126;-68
2023/04/20 05:44:59;;;;;;;1999.90;999.90;;;9.60;99.90;;;;;;5074132;28;20052;-69
2023/04/20 05:47:28;;;;;;;1999.90;999.90;;;9.70;99.90;;;;;;5073990;28;20112;-76
2023/04/20 05:49:54;;;;;;;1999.90;999.90;;;9.70;99.90;;;;;;5073844;28;20419;-76
2023/04/20 05:52:19;;;;;;;1999.90;999.90;;;9.80;99.90;;;;;;5073865;28;20142;-76
2023/04/20 05:54:45;;;;;;;1999.90;999.90;;;9.90;99.90;;;;;;5072179;28;20044;-70
2023/04/20 05:57:10;;;;;;;1999.90;999.90;;;10.00;99.90;;;;;;5070630;28;20032;-76
2023/04/20 05:59:36;;;;;;;1999.90;999.90;;;10.10;99.90;;;;;;5073745;28;20535;-76
2023/04/20 06:02:02;;;;;;;1999.90;999.90;;;10.20;99.90;;;;;;5075799;28;20029;-76
2023/04/20 06:04:29;;;;;;;1999.90;999.90;;;10.20;99.90;;;;;;5093118;28;20474;-69
2023/04/20 06:06:55;;;;;;;1999.90;999.90;;;10.30;99.90;;;;;;5093824;28;20133;-69
2023/04/20 06:09:20;;;;;;;1999.90;999.90;;;10.40;99.90;;;;;;5073341;28;20531;-76
2023/04/20 06:11:46;;;;;;;1999.90;999.90;;;10.50;99.90;;;;;;5074011;28;20028;-76
2023/04/20 06:14:13;;;;;;;1999.90;999.90;;;10.60;99.90;;;;;;5073310;28;20024;-76
2023/04/20 06:16:39;;;;;;;1999.90;999.90;;;10.80;99.90;;;;;;5072781;28;20048;-76
2023/04/20 06:19:05;;;;;;;1999.90;999.90;;;10.90;99.90;;;;;;5070311;28;20012;-69
2023/04/20 06:21:33;;;;;;;1999.90;999.90;;;11.00;99.90;;;;;;5068780;28;20038;-76
2023/04/20 06:23:59;;;;;;;1999.90;999.90;;;11.00;99.90;;;;;;5046180;28;20514;-69
2023/04/20 06:26:25;;;;;;;1999.90;999.90;;;11.10;99.90;;;;;;5080503;28;20067;-76
2023/04/20 06:28:52;;;;;;;1999.90;999.90;;;11.10;99.90;;;;;;5054719;28;20099;-69
2023/04/20 06:31:18;;;;;;;1999.90;999.90;;;11.20;99.90;;;;;;5065528;28;20572;-68
2023/04/20 06:33:44;;;;;;;1999.90;999.90;;;11.20;99.90;;;;;;5068970;28;20021;-76
2023/04/20 06:36:10;;;;;;;1999.90;999.90;;;11.30;99.90;;;;;;5076006;28;20775;-77
2023/04/20 06:38:36;;;;;;;1999.90;999.90;;;11.40;99.90;;;;;;5061734;28;20025;-68
2023/04/20 06:41:01;;;;;;;1999.90;999.90;;;11.40;99.90;;;;;;5069972;28;20484;-75
2023/04/20 06:43:30;;;;;;;1999.90;999.90;;;11.40;99.90;;;;;;5071556;28;20028;-69
2023/04/20 06:45:56;;;;;;;1999.90;999.90;;;11.50;99.90;;;;;;5062239;28;20033;-68
2023/04/20 06:48:22;;;;;;;1999.90;999.90;;;11.50;99.90;;;;;;5087793;28;20047;-76
2023/04/20 06:50:48;;;;;;;1999.90;999.90;;;11.60;99.90;;;;;;5091372;28;20506;-69
2023/04/20 06:53:15;;;;;;;1999.90;999.90;;;11.60;99.90;;;;;;5077123;28;20032;-80
2023/04/20 06:55:41;;;;;;;1999.90;999.90;;;11.60;99.90;;;;;;5071768;28;20025;-79
2023/04/20 06:58:06;;;;;;;1999.90;999.90;;;11.70;99.90;;;;;;5077027;28;20138;-69
2023/04/20 07:00:32;;;;;;;1999.90;999.90;;;11.70;99.90;;;;;;5084057;28;20020;-69
2023/04/20 07:02:58;;;;;;;1999.90;999.90;;;11.70;99.90;;;;;;5074973;28;20033;-78
2023/04/20 07:05:23;;;;;;;1999.90;999.90;;;11.80;99.90;;;;;;5070441;28;20534;-76
2023/04/20 07:07:50;;;;;;;1999.90;999.90;;;11.80;99.90;;;;;;5069339;28;20016;-69
2023/04/20 07:10:16;;;;;;;1999.90;999.90;;;11.90;99.90;;;;;;5067550;28;20044;-75
2023/04/20 07:12:42;;;;;;;1999.90;999.90;;;11.90;99.90;;;;;;5066531;28;20047;-69
2023/04/20 07:15:08;;;;;;;1999.90;999.90;;;11.80;99.90;;;;;;5086033;28;20045;-78
2023/04/20 07:17:34;;;;;;;1999.90;999.90;;;11.80;99.90;;;;;;5079173;28;20494;-79
2023/04/20 07:20:07;;;;;;;1999.90;999.90;;;11.80;99.90;;;;;;5067702;28;20055;-72
2023/04/20 07:22:37;;;;;;;1999.90;999.90;;;11.80;99.90;;;;;;5055435;28;20024;-72
2023/04/20 07:25:05;;;;;;;1999.90;999.90;;;11.90;99.90;;;;;;5069065;28;20063;-72
2023/04/20 07:27:34;;;;;;;1999.90;999.90;;;12.00;99.90;;;;;;5076106;28;20035;-71
2023/04/20 07:30:00;;;;;;;1999.90;999.90;;;12.00;99.90;;;;;;5074445;28;20399;-78
2023/04/20 07:32:26;;;;;;;1999.90;999.90;;;12.00;99.90;;;;;;5062570;28;20013;-79
2023/04/20 07:34:52;;;;;;;1999.90;999.90;;;12.10;99.90;;;;;;5069110;28;20159;-71
2023/04/20 07:37:18;;;;;;;1999.90;999.90;;;12.20;99.90;;;;;;5078717;28;20021;-71
2023/04/20 07:39:44;;;;;;;1999.90;999.90;;;12.30;99.90;;;;;;5070143;28;20044;-78
2023/04/20 07:42:09;;;;;;;1999.90;999.90;;;12.50;99.90;;;;;;5072320;28;20052;-79
2023/04/20 07:44:36;;;;;;;1999.90;999.90;;;12.70;99.90;;;;;;5078799;28;20016;-78
2023/04/20 07:47:02;;;;;;;1999.90;999.90;;;12.90;99.90;;;;;;5071208;28;20110;-78
2023/04/20 07:49:28;;;;;;;1999.90;999.90;;;13.00;99.90;;;;;;5062844;28;20017;-71
2023/04/20 07:51:54;;;;;;;1999.90;999.90;;;13.30;99.90;;;;;;5069334;28;20055;-71
2023/04/20 07:54:19;;;;;;;1999.90;999.90;;;13.60;99.90;;;;;;5055903;28;20532;-72
2023/04/20 07:56:45;;;;;;;1999.90;999.90;;;13.80;99.90;;;;;;5086293;28;20024;-78
2023/04/20 07:59:11;;;;;;;1999.90;999.90;;;14.10;99.90;;;;;;5075263;28;20107;-72
2023/04/20 08:01:36;;;;;;;1999.90;999.90;;;14.50;99.90;;;;;;5062357;28;20048;-79
2023/04/20 08:04:02;;;;;;;1999.90;999.90;;;16.10;99.90;;;;;;5072925;28;20131;-72
2023/04/20 08:06:27;;;;;;;1999.90;999.90;;;18.80;99.90;;;;;;5072473;28;20028;-72
2023/04/20 08:08:53;;;;;;;1999.90;999.90;;;20.40;99.90;;;;;;5066822;28;20032;-73
2023/04/20 08:11:20;;;;;;;1999.90;999.90;;;21.30;99.90;;;;;;5073939;28;20056;-72
2023/04/20 08:13:46;;;;;;;1999.90;999.90;;;21.60;99.90;;;;;;5073205;28;20039;-72
2023/04/20 08:16:11;;;;;;;1999.90;999.90;;;22.80;99.90;;;;;;5054771;28;20024;-72
2023/04/20 08:18:37;;;;;;;1999.90;999.90;;;23.70;99.90;;;;;;5077259;28;20081;-72
2023/04/20 08:21:02;;;;;;;1999.90;999.90;;;23.80;99.90;;;;;;5072392;28;20448;-78
2023/04/20 08:23:28;;;;;;;1999.90;999.90;;;23.70;99.70;;;;;;5068165;28;20036;-78
2023/04/20 08:25:54;;;;;;;1999.90;999.90;;;23.90;99.00;;;;;;5072889;28;20415;-79
2023/04/20 08:28:21;;;;;;;1999.90;999.90;;;24.60;98.50;;;;;;5080329;28;20032;-72
2023/04/20 08:30:47;;;;;;;1999.90;999.90;;;25.10;97.40;;;;;;5094487;28;20102;-72
2023/04/20 08:33:12;;;;;;;1999.90;999.90;;;24.40;97.70;;;;;;5074944;28;20531;-79
2023/04/20 08:35:38;;;;;;;1999.90;999.90;;;24.60;97.10;;;;;;5081023;28;20027;-80
2023/04/20 08:38:04;;;;;;;1999.90;999.90;;;25.00;96.80;;;;;;5083499;28;20513;-79
2023/04/20 08:40:31;;;;;;;1999.90;999.90;;;25.30;96.40;;;;;;5093762;28;20118;-73
2023/04/20 08:43:00;;;;;;;1999.90;999.90;;;26.30;95.40;;;;;;5093745;28;20040;-73
2023/04/20 08:45:26;;;;;;;1999.90;999.90;;;26.00;95.10;;;;;;5074041;28;20035;-79
2023/04/20 08:47:52;;;;;;;1999.90;999.90;;;25.70;95.90;;;;;;5072969;28;20025;-79
2023/04/20 08:50:19;;;;;;;1999.90;999.90;;;25.70;95.20;;;;;;5073506;28;20049;-79
2023/04/20 08:52:45;;;;;;;1999.90;999.90;;;26.50;95.70;;;;;;5071841;28;20024;-73
2023/04/20 08:55:18;;;;;;;1999.90;999.90;;;26.60;94.40;;;;;;5072455;28;20491;-73
2023/04/20 08:57:43;;;;;;;;;;;26.00;95.00;;;;;;5071550;28;20025;-79
2023/04/20 09:00:10;;;;;;;1999.90;999.90;;;25.00;95.50;;;;;;5068558;28;19919;-73
2023/04/20 09:02:49;;;;;;;1999.90;999.90;;;24.80;96.10;;;;;;5062657;28;20502;-79
2023/04/20 09:05:15;;;;;;;1999.90;999.90;;;24.50;96.30;;;;;;5068891;28;20087;-72
2023/04/20 09:07:52;;;;;;;1999.90;999.90;;;22.60;98.40;;;;;;5071970;28;20056;-72
2023/04/20 09:10:17;;;;;;;1999.90;999.90;;;22.30;99.90;;;;;;5071925;28;20032;-78
2023/04/20 09:12:43;;;;;;;1999.90;999.90;;;22.20;99.90;;;;;;5087303;28;20031;-81
2023/04/20 09:15:10;;;;;;;1999.90;999.90;;;23.20;99.30;;;;;;5077010;28;20035;-73
2023/04/20 09:17:38;;;;;;;1999.90;999.90;;;24.10;98.50;;;;;;5078529;28;20040;-81
2023/04/20 09:20:05;;;;;;;1999.90;999.90;;;25.00;97.30;;;;;;5072226;28;20141;-73
2023/04/20 09:22:32;;;;;;;1999.90;999.90;;;24.10;96.90;;;;;;5072719;28;20438;-73
2023/04/20 09:24:58;;;;;;;1999.90;999.90;;;24.00;98.10;;;;;;5068869;28;20134;-79
2023/04/20 09:27:25;;;;;;;1999.90;999.90;;;23.50;98.30;;;;;;5056012;28;20113;-78
2023/04/20 09:29:58;;;;;;;1999.90;999.90;;;23.30;98.60;;;;;;5069851;28;20123;-73
2023/04/20 09:32:26;;;;;;;1999.90;999.90;;;24.30;98.10;;;;;;5071460;28;20021;-73
2023/04/20 09:34:52;;;;;;;1999.90;999.90;;;24.50;98.00;;;;;;5067438;28;20036;-74
2023/04/20 09:37:18;;;;;;;1999.90;999.90;;;24.80;97.00;;;;;;5081369;28;20441;-80
2023/04/20 09:39:45;;;;;;;1999.90;999.90;;;25.40;96.40;;;;;;5070854;28;20036;-71
2023/04/20 09:42:15;;;;;;;1999.90;999.90;;;25.60;96.00;;;;;;5077597;28;20027;-78
2023/04/20 09:44:42;;;;;;;1999.90;999.90;;;25.90;95.70;;;;;;5073831;28;20028;-71
2023/04/20 09:47:08;;;;;;;1999.90;999.90;;;26.00;95.30;;;;;;5071886;28;20535;-72
2023/04/20 09:49:34;;;;;;;1999.90;999.90;;;25.40;95.60;;;;;;5075323;28;20024;-77
2023/04/20 09:52:03;;;;;;;1999.90;999.90;;;24.80;96.50;;;;;;5065638;28;20137;-72
2023/04/20 09:54:30;;;;;;;1999.90;999.90;;;25.50;96.60;;;;;;5070230;28;20037;-78
2023/04/20 09:56:58;;;;;;;1999.90;999.90;;;26.10;95.40;;;;;;5074836;28;20500;-78
2023/04/20 09:59:26;;;;;;;1999.90;999.90;;;26.90;93.90;;;;;;5071864;28;20140;-72
2023/04/20 10:01:52;;;;;;;1999.90;999.90;;;26.70;93.60;;;;;;5063319;28;20139;-78
2023/04/20 10:04:17;;;;;;;1999.90;999.90;;;26.80;93.60;;;;;;5071503;28;20111;-77
2023/04/20 10:06:56;;;;;;;1999.90;999.90;;;25.90;93.40;;;;;;5070599;28;20033;-72
2023/04/20 10:09:27;;;;;;;1999.90;999.90;;;25.90;95.00;;;;;;5071323;28;20145;-72
2023/04/20 10:12:05;;;;;;;1999.90;999.90;;;25.00;95.50;;;;;;5070322;28;20029;-71
2023/04/20 10:14:30;;;;;;;1999.90;999.90;;;24.20;96.30;;;;;;5070802;28;20033;-72
2023/04/20 10:17:01;;;;;;;1999.90;999.90;;;24.60;95.90;;;;;;5070370;28;20073;-77
2023/04/20 10:19:38;;;;;;;1999.90;999.90;;;25.50;95.90;;;;;;5073872;28;20035;-77
2023/04/20 10:22:04;;;;;;;1999.90;999.90;;;26.30;95.00;;;;;;5077546;28;20073;-78
2023/04/20 10:24:30;;;;;;;1999.90;999.90;;;26.20;94.40;;;;;;5073136;28;20051;-78
2023/04/20 10:26:57;;;;;;;1999.90;999.90;;;25.90;94.80;;;;;;5064994;28;20116;-72
2023/04/20 10:29:27;;;;;;;1999.90;999.90;;;25.60;94.90;;;;;;5058192;28;20041;-78
2023/04/20 10:31:55;;;;;;;1999.90;999.90;;;25.70;95.00;;;;;;5068916;28;20036;-78
2023/04/20 10:34:34;;;;;;;1999.90;999.90;;;24.90;94.30;;;;;;5065679;28;20549;-77
2023/04/20 10:37:10;;;;;;;1999.90;999.90;;;24.40;96.10;;;;;;5040091;28;20028;-72
2023/04/20 10:39:42;;;;;;;1999.90;999.90;;;24.30;96.80;;;;;;5062135;28;20029;-78
2023/04/20 10:42:08;;;;;;;1999.90;999.90;;;23.80;97.50;;;;;;5069504;28;20035;-77
2023/04/20 10:44:34;;;;;;;1999.90;999.90;;;22.40;98.90;;;;;;5068841;28;20024;-79
2023/04/20 10:47:00;;;;;;;1999.90;999.90;;;21.80;99.90;;;;;;5049305;28;20510;-79
2023/04/20 10:49:30;;;;;;;1999.90;999.90;;;21.50;99.90;;;;;;5074047;28;20036;-79
2023/04/20 10:51:56;;;;;;;1999.90;999.90;;;22.00;99.90;;;;;;5071044;28;20063;-74
2023/04/20 10:54:21;;;;;;;1999.90;999.90;;;21.70;99.90;;;;;;5069922;28;20525;-74
2023/04/20 10:56:50;;;;;;;1999.90;999.90;;;21.40;99.90;;;;;;5070846;28;20494;-79
2023/04/20 10:59:22;;;;;;;1999.90;999.90;;;21.70;99.90;;;;;;5067630;28;20023;-79
2023/04/20 11:01:49;;;;;;;1999.90;999.90;;;21.60;99.90;;;;;;5069506;28;20044;-79
2023/04/20 11:04:15;;;;;;;1999.90;999.90;;;21.70;99.90;;;;;;5066956;28;20029;-73
2023/04/20 11:06:43;;;;;;;1999.90;999.90;;;22.00;99.90;;;;;;5064026;28;20032;-71
2023/04/20 11:09:27;;;;;;;1999.90;999.90;;;22.20;99.90;;;;;;5063258;28;20028;-77
2023/04/20 11:12:00;;;;;;;1999.90;999.90;;;22.60;99.40;;;;;;5071050;28;20032;-71
2023/04/20 11:14:26;;;;;;;1999.90;999.90;;;22.30;99.40;;;;;;5067483;28;20028;-79
2023/04/20 11:16:52;;;;;;;1999.90;999.90;;;22.60;99.30;;;;;;5064093;28;20037;-79
2023/04/20 11:19:32;;;;;;;1999.90;999.90;;;22.80;98.90;;;;;;5051614;28;20037;-79
2023/04/20 11:21:59;;;;;;;1999.90;999.90;;;23.50;98.30;;;;;;5056938;28;20079;-79
2023/04/20 11:24:27;;;;;;;1999.90;999.90;;;23.20;97.70;;;;;;5067529;28;20044;-79
2023/04/20 11:26:53;;;;;;;1999.90;999.90;;;23.10;97.50;;;;;;5063388;28;20024;-80
2023/04/20 11:29:38;;;;;;;1999.90;999.90;;;23.20;97.10;;;;;;5068538;28;20040;-80
2023/04/20 11:32:08;;;;;;;1999.90;999.90;;;22.90;96.70;;;;;;5046531;28;20029;-73
2023/04/20 11:34:38;;;;;;;1999.90;999.90;;;22.80;97.70;;;;;;5068096;28;20063;-80
2023/04/20 11:37:05;;;;;;;1999.90;999.90;;;22.90;97.60;;;;;;5067951;28;20067;-80
2023/04/20 11:39:31;;;;;;;1999.90;999.90;;;23.10;96.40;;;;;;5062227;28;20021;-73
2023/04/20 11:41:57;;;;;;;1999.90;999.90;;;23.30;97.00;;;;;;5071238;28;20036;-73
2023/04/20 11:44:24;;;;;;;1999.90;999.90;;;22.80;96.80;;;;;;5068711;28;20111;-73
2023/04/20 11:46:53;;;;;;;1999.90;999.90;;;22.50;97.30;;;;;;5069841;28;20020;-80
2023/04/20 11:49:25;;;;;;;1999.90;999.90;;;22.30;96.80;;;;;;5073963;28;20029;-78
2023/04/20 11:51:51;;;;;;;1999.90;999.90;;;22.20;97.10;;;;;;5068972;28;20435;-79
2023/04/20 11:54:24;;;;;;;1999.90;999.90;;;22.10;97.50;;;;;;5070234;28;20032;-79
2023/04/20 11:56:49;;;;;;;;;;;22.20;96.70;;;;;;5068716;28;20099;-73
2023/04/20 11:59:18;;;;;;;1999.90;999.90;;;22.30;97.90;;;;;;5070612;28;20008;-79